Time,TemperatureF,DewpointF,PressureIn,WindDirection,WindDirectionDegrees,WindSpeedMPH,WindSpeedGustMPH,Humidity,HourlyPrecipIn,Conditions,Clouds,dailyrainin,SoftwareType,DateUTC
2014-02-23 00:00:00,35.9,31.7,28.17,SSE,152,0.0,0.0,97,0.00,,,-99.99,HOBO +U30 +Weather +,2014-02-23 08:00:00,
2014-02-23 00:15:00,35.9,31.6,28.18,SSE,152,0.0,0.0,97,0.00,,,-99.99,HOBO +U30 +Weather +,2014-02-23 08:15:00,
2014-02-23 00:37:00,35.9,31.6,28.18,SSE,152,0.0,0.0,97,0.00,,,-99.99,HOBO +U30 +Weather +,2014-02-23 08:37:00,
2014-02-23 00:45:00,35.8,31.7,28.18,SSE,152,0.0,0.0,97,0.00,,,-99.99,HOBO +U30 +Weather +,2014-02-23 08:45:00,
2014-02-23 01:00:00,35.8,31.5,28.17,SSE,152,0.0,0.0,97,0.00,,,-99.99,HOBO +U30 +Weather +,2014-02-23 09:00:00,
2014-02-23 01:15:00,35.8,31.7,28.17,SSE,152,0.0,0.0,97,0.00,,,-99.99,HOBO +U30 +Weather +,2014-02-23 09:15:00,
2014-02-23 01:37:00,35.8,31.7,28.16,SSE,152,0.0,1.8,98,0.00,,,-99.99,HOBO +U30 +Weather +,2014-02-23 09:37:00,
2014-02-23 01:45:00,35.8,31.7,28.17,SSE,152,0.0,0.0,97,0.00,,,-99.99,HOBO +U30 +Weather +,2014-02-23 09:45:00,
2014-02-23 02:00:00,35.7,31.7,28.17,SSE,152,0.0,0.0,97,0.00,,,-99.99,HOBO +U30 +Weather +,2014-02-23 10:00:00,
2014-02-23 02:15:00,35.7,31.9,28.17,SSE,152,0.0,0.0,98,0.00,,,-99.99,HOBO +U30 +Weather +,2014-02-23 10:15:00,
2014-02-23 02:38:00,35.7,31.9,28.16,SSE,152,0.0,0.0,97,0.00,,,-99.99,HOBO +U30 +Weather +,2014-02-23 10:38:00,
2014-02-23 02:45:00,35.7,31.8,28.15,SSE,152,0.0,0.0,98,0.00,,,-99.99,HOBO +U30 +Weather +,2014-02-23 10:45:00,
2014-02-23 03:00:00,35.6,31.8,28.15,SSE,152,0.0,0.0,98,0.00,,,-99.99,HOBO +U30 +Weather +,2014-02-23 11:00:00,
2014-02-23 03:15:00,35.6,31.9,28.14,SSE,152,0.0,0.0,98,0.00,,,-99.99,HOBO +U30 +Weather +,2014-02-23 11:15:00,
2014-02-23 03:38:00,35.6,31.9,28.15,SSE,152,0.0,0.0,98,0.00,,,-99.99,HOBO +U30 +Weather +,2014-02-23 11:38:00,
2014-02-23 03:45:00,35.6,31.8,28.14,SSE,152,0.0,0.7,98,0.00,,,-99.99,HOBO +U30 +Weather +,2014-02-23 11:45:00,
2014-02-23 04:00:00,35.6,32.0,28.14,SSE,153,0.0,0.0,98,0.00,,,-99.99,HOBO +U30 +Weather +,2014-02-23 12:00:00,
2014-02-23 04:15:00,35.6,31.9,28.14,SSE,153,0.0,0.0,98,0.00,,,-99.99,HOBO +U30 +Weather +,2014-02-23 12:15:00,
2014-02-23 04:30:00,35.6,31.9,28.13,SSE,152,0.0,0.0,98,0.00,,,-99.99,HOBO +U30 +Weather +,2014-02-23 12:30:00,
2014-02-23 04:45:00,35.6,32.0,28.13,SSE,152,0.0,0.0,98,0.00,,,-99.99,HOBO +U30 +Weather +,2014-02-23 12:45:00,
2014-02-23 05:00:00,35.5,32.0,28.13,SSE,152,0.0,0.0,98,0.00,,,-99.99,HOBO +U30 +Weather +,2014-02-23 13:00:00,
2014-02-23 05:15:00,35.5,32.1,28.12,SSE,152,0.0,0.0,98,0.00,,,-99.99,HOBO +U30 +Weather +,2014-02-23 13:15:00,
2014-02-23 05:30:00,35.5,32.1,28.12,SSE,152,0.0,0.0,98,0.00,,,-99.99,HOBO +U30 +Weather +,2014-02-23 13:30:00,
2014-02-23 05:45:00,35.5,32.1,28.12,SSE,152,0.0,0.0,98,0.00,,,-99.99,HOBO +U30 +Weather +,2014-02-23 13:45:00,
2014-02-23 06:00:00,35.5,32.0,28.12,SSE,152,0.0,0.0,98,0.00,,,-99.99,HOBO +U30 +Weather +,2014-02-23 14:00:00,
2014-02-23 06:15:00,35.5,32.1,28.12,SSE,152,0.0,0.0,98,0.00,,,-99.99,HOBO +U30 +Weather +,2014-02-23 14:15:00,
2014-02-23 06:30:00,35.5,32.1,28.12,SE,138,0.0,0.7,98,0.00,,,-99.99,HOBO +U30 +Weather +,2014-02-23 14:30:00,
2014-02-23 06:45:00,35.5,32.0,28.11,SE,131,0.0,0.7,98,0.00,,,-99.99,HOBO +U30 +Weather +,2014-02-23 14:45:00,
2014-02-23 07:00:00,35.5,32.0,28.11,SE,131,0.0,0.0,98,0.00,,,-99.99,HOBO +U30 +Weather +,2014-02-23 15:00:00,
2014-02-23 07:15:00,35.5,32.0,28.12,SE,131,0.0,0.0,98,0.00,,,-99.99,HOBO +U30 +Weather +,2014-02-23 15:15:00,
2014-02-23 07:30:00,35.5,32.1,28.12,SE,131,0.0,0.0,98,0.00,,,-99.99,HOBO +U30 +Weather +,2014-02-23 15:30:00,
2014-02-23 07:45:00,35.5,32.5,28.12,SE,131,0.0,0.0,98,0.00,,,-99.99,HOBO +U30 +Weather +,2014-02-23 15:45:00,
2014-02-23 08:00:00,35.5,32.5,28.11,SE,131,0.0,2.9,98,0.00,,,-99.99,HOBO +U30 +Weather +,2014-02-23 16:00:00,
2014-02-23 08:15:00,35.5,32.8,28.11,SE,131,0.0,2.2,98,0.00,,,-99.99,HOBO +U30 +Weather +,2014-02-23 16:15:00,
2014-02-23 08:30:00,35.5,33.0,28.10,SE,131,0.0,0.0,98,0.00,,,-99.99,HOBO +U30 +Weather +,2014-02-23 16:30:00,
2014-02-23 08:45:00,35.5,33.3,28.11,SE,131,0.0,1.1,98,0.00,,,-99.99,HOBO +U30 +Weather +,2014-02-23 16:45:00,
2014-02-23 09:00:00,35.6,33.9,28.10,SE,131,0.0,1.1,98,0.00,,,-99.99,HOBO +U30 +Weather +,2014-02-23 17:00:00,
2014-02-23 09:15:00,35.6,34.3,28.10,SE,139,2.2,5.1,97,0.05,,,-99.99,HOBO +U30 +Weather +,2014-02-23 17:15:00,
2014-02-23 09:30:00,35.7,34.7,28.10,SSE,167,0.0,3.4,97,0.08,,,-99.99,HOBO +U30 +Weather +,2014-02-23 17:30:00,
2014-02-23 09:45:00,35.8,35.2,28.11,SSE,147,0.0,4.0,97,0.05,,,-99.99,HOBO +U30 +Weather +,2014-02-23 17:45:00,
2014-02-23 10:00:00,36.0,35.6,28.11,SW,225,0.7,4.5,96,0.00,,,-99.99,HOBO +U30 +Weather +,2014-02-23 18:00:00,
2014-02-23 10:15:00,36.1,35.9,28.11,SSW,199,0.7,4.5,96,0.00,,,-99.99,HOBO +U30 +Weather +,2014-02-23 18:15:00,
2014-02-23 10:30:00,36.2,36.4,28.11,SSE,149,1.8,4.5,96,0.00,,,-99.99,HOBO +U30 +Weather +,2014-02-23 18:30:00,
2014-02-23 10:45:00,36.4,36.9,28.11,SE,128,1.8,6.3,95,0.00,,,-99.99,HOBO +U30 +Weather +,2014-02-23 18:45:00,
2014-02-23 11:00:00,36.5,37.3,28.11,SE,124,2.2,6.3,95,0.00,,,-99.99,HOBO +U30 +Weather +,2014-02-23 19:00:00,
2014-02-23 11:15:00,36.7,37.8,28.10,ESE,104,1.8,5.6,94,0.00,,,-99.99,HOBO +U30 +Weather +,2014-02-23 19:15:00,
2014-02-23 11:30:00,37.0,38.4,28.09,ESE,119,1.8,6.3,94,0.00,,,-99.99,HOBO +U30 +Weather +,2014-02-23 19:30:00,
2014-02-23 11:45:00,37.2,38.3,28.09,SE,128,1.8,6.7,93,0.00,,,-99.99,HOBO +U30 +Weather +,2014-02-23 19:45:00,
2014-02-23 12:00:00,37.5,39.0,28.08,ESE,121,1.8,6.7,93,0.00,,,-99.99,HOBO +U30 +Weather +,2014-02-23 20:00:00,
2014-02-23 12:15:00,37.7,39.4,28.08,East,93,1.8,5.6,93,0.00,,,-99.99,HOBO +U30 +Weather +,2014-02-23 20:15:00,
2014-02-23 12:30:00,37.9,39.1,28.09,East,100,0.7,4.0,91,0.00,,,-99.99,HOBO +U30 +Weather +,2014-02-23 20:30:00,
2014-02-23 12:45:00,38.1,39.1,28.09,SE,135,1.8,6.3,93,0.00,,,-99.99,HOBO +U30 +Weather +,2014-02-23 20:45:00,
2014-02-23 13:00:00,38.3,38.9,28.09,SE,139,2.9,6.7,92,0.00,,,-99.99,HOBO +U30 +Weather +,2014-02-23 21:00:00,
2014-02-23 13:15:00,38.5,39.0,28.09,SE,136,1.8,6.7,93,0.00,,,-99.99,HOBO +U30 +Weather +,2014-02-23 21:15:00,
2014-02-23 13:30:00,38.6,38.8,28.09,SE,146,2.9,6.7,94,0.00,,,-99.99,HOBO +U30 +Weather +,2014-02-23 21:30:00,
2014-02-23 13:45:00,38.7,38.7,28.09,ENE,62,1.8,6.3,93,0.00,,,-99.99,HOBO +U30 +Weather +,2014-02-23 21:45:00,
2014-02-23 14:00:00,38.8,38.6,28.08,ESE,107,1.8,6.7,93,0.00,,,-99.99,HOBO +U30 +Weather +,2014-02-23 22:00:00,
2014-02-23 14:15:00,38.8,38.3,28.09,ESE,117,1.8,6.3,93,0.00,,,-99.99,HOBO +U30 +Weather +,2014-02-23 22:15:00,
2014-02-23 14:30:00,38.9,37.6,28.08,East,97,2.9,10.7,92,0.00,,,-99.99,HOBO +U30 +Weather +,2014-02-23 22:30:00,
2014-02-23 14:45:00,38.9,37.3,28.08,ESE,104,4.5,9.6,92,0.00,,,-99.99,HOBO +U30 +Weather +,2014-02-23 22:45:00,
2014-02-23 15:00:00,39.0,37.1,28.10,SSE,167,3.4,11.2,93,0.00,,,-99.99,HOBO +U30 +Weather +,2014-02-23 23:00:00,
2014-02-23 15:15:00,39.0,37.8,28.09,North,6,0.0,2.9,95,0.00,,,-99.99,HOBO +U30 +Weather +,2014-02-23 23:15:00,
2014-02-23 15:30:00,39.0,37.7,28.08,ENE,60,0.7,5.1,95,0.05,,,-99.99,HOBO +U30 +Weather +,2014-02-23 23:30:00,
2014-02-23 15:45:00,39.0,37.5,28.09,East,83,0.7,3.4,95,0.05,,,-99.99,HOBO +U30 +Weather +,2014-02-23 23:45:00,
2014-02-23 16:00:00,39.1,37.4,28.08,East,101,0.7,3.4,96,0.05,,,-99.99,HOBO +U30 +Weather +,2014-02-24 00:00:00,
2014-02-23 16:15:00,39.0,36.8,28.08,ESE,114,1.1,6.7,96,0.05,,,-99.99,HOBO +U30 +Weather +,2014-02-24 00:15:00,
2014-02-23 16:30:00,39.0,36.4,28.08,East,97,2.9,7.8,96,0.00,,,-99.99,HOBO +U30 +Weather +,2014-02-24 00:30:00,
2014-02-23 16:45:00,39.0,36.2,28.08,East,95,1.8,7.4,96,0.05,,,-99.99,HOBO +U30 +Weather +,2014-02-24 00:45:00,
2014-02-23 17:00:00,39.0,36.0,28.08,ESE,112,1.1,5.6,96,0.05,,,-99.99,HOBO +U30 +Weather +,2014-02-24 01:00:00,
2014-02-23 17:15:00,39.0,36.1,28.10,SE,139,0.7,5.1,96,0.05,,,-99.99,HOBO +U30 +Weather +,2014-02-24 01:15:00,
2014-02-23 17:30:00,38.9,36.1,28.10,East,83,1.1,5.6,96,0.00,,,-99.99,HOBO +U30 +Weather +,2014-02-24 01:30:00,
2014-02-23 17:45:00,38.9,36.0,28.10,East,98,2.2,6.3,95,0.05,,,-99.99,HOBO +U30 +Weather +,2014-02-24 01:45:00,
2014-02-23 18:00:00,38.8,35.9,28.10,SE,125,1.1,5.1,96,0.00,,,-99.99,HOBO +U30 +Weather +,2014-02-24 02:00:00,
2014-02-23 18:15:00,38.8,35.8,28.11,SE,128,1.1,5.1,96,0.05,,,-99.99,HOBO +U30 +Weather +,2014-02-24 02:15:00,
2014-02-23 18:30:00,38.7,35.8,28.11,SSE,166,0.0,2.2,97,0.00,,,-99.99,HOBO +U30 +Weather +,2014-02-24 02:30:00,
2014-02-23 18:45:00,38.6,35.7,28.12,SSE,166,0.0,1.1,97,0.00,,,-99.99,HOBO +U30 +Weather +,2014-02-24 02:45:00,
2014-02-23 19:00:00,38.6,35.6,28.12,SSE,166,0.0,1.1,97,0.00,,,-99.99,HOBO +U30 +Weather +,2014-02-24 03:00:00,
2014-02-23 19:15:00,38.5,35.6,28.12,SSE,147,0.0,3.4,97,0.05,,,-99.99,HOBO +U30 +Weather +,2014-02-24 03:15:00,
2014-02-23 19:30:00,38.4,35.3,28.11,SE,142,0.7,4.0,97,0.00,,,-99.99,HOBO +U30 +Weather +,2014-02-24 03:30:00,
2014-02-23 19:45:00,38.4,35.3,28.11,SE,139,0.0,2.9,97,0.00,,,-99.99,HOBO +U30 +Weather +,2014-02-24 03:45:00,
2014-02-23 20:00:00,38.3,35.6,28.12,East,98,0.7,5.1,97,0.00,,,-99.99,HOBO +U30 +Weather +,2014-02-24 04:00:00,
2014-02-23 20:15:00,38.3,35.3,28.12,ESE,118,0.7,4.0,97,0.00,,,-99.99,HOBO +U30 +Weather +,2014-02-24 04:15:00,
2014-02-23 20:30:00,38.2,35.4,28.13,SE,132,0.0,2.2,97,0.00,,,-99.99,HOBO +U30 +Weather +,2014-02-24 04:30:00,
2014-02-23 20:45:00,38.1,35.6,28.13,SE,132,0.0,2.2,97,0.05,,,-99.99,HOBO +U30 +Weather +,2014-02-24 04:45:00,
2014-02-23 21:00:00,38.1,35.6,28.14,SE,131,0.7,4.5,97,0.00,,,-99.99,HOBO +U30 +Weather +,2014-02-24 05:00:00,
2014-02-23 21:15:00,38.0,35.5,28.14,SE,128,0.7,3.4,97,0.00,,,-99.99,HOBO +U30 +Weather +,2014-02-24 05:15:00,
2014-02-23 21:30:00,38.0,35.6,28.14,SE,128,0.0,3.4,97,0.00,,,-99.99,HOBO +U30 +Weather +,2014-02-24 05:30:00,
2014-02-23 21:45:00,37.9,35.6,28.14,SE,126,0.7,4.0,98,0.00,,,-99.99,HOBO +U30 +Weather +,2014-02-24 05:45:00,
2014-02-23 22:00:00,37.9,35.6,28.14,SE,126,0.0,2.9,98,0.00,,,-99.99,HOBO +U30 +Weather +,2014-02-24 06:00:00,
2014-02-23 22:15:00,37.9,35.6,28.14,SE,126,0.0,3.4,98,0.05,,,-99.99,HOBO +U30 +Weather +,2014-02-24 06:15:00,
2014-02-23 22:30:00,37.9,35.6,28.15,SE,128,0.0,3.4,97,0.00,,,-99.99,HOBO +U30 +Weather +,2014-02-24 06:30:00,
2014-02-23 22:45:00,37.8,35.7,28.15,SE,128,0.0,1.8,97,0.00,,,-99.99,HOBO +U30 +Weather +,2014-02-24 06:45:00,
2014-02-23 23:00:00,37.8,35.8,28.15,SE,126,0.0,0.0,98,0.00,,,-99.99,HOBO +U30 +Weather +,2014-02-24 07:00:00,
2014-02-23 23:15:00,37.8,35.8,28.15,SE,126,0.0,0.0,98,0.00,,,-99.99,HOBO +U30 +Weather +,2014-02-24 07:15:00,
2014-02-23 23:30:00,37.7,36.0,28.15,SE,125,0.0,2.2,98,0.00,,,-99.99,HOBO +U30 +Weather +,2014-02-24 07:30:00,
2014-02-23 23:45:00,37.7,35.9,28.15,SSE,159,0.0,3.4,98,0.00,,,-99.99,HOBO +U30 +Weather +,2014-02-24 07:45:00,